sensor_id;sensor_type;location;lat;lon;timestamp;P1;durP1;ratioP1;P2;durP2;ratioP2
84264;SDS011;74412;45.626;5.108;2024-01-06T00:01:48;3.00;;;2.00;;
84264;SDS011;74412;45.626;5.108;2024-01-06T00:04:15;4.00;;;2.50;;
84264;SDS011;74412;45.626;5.108;2024-01-06T00:06:41;1.00;;;1.00;;
84264;SDS011;74412;45.626;5.108;2024-01-06T00:09:09;2.00;;;2.00;;
84264;SDS011;74412;45.626;5.108;2024-01-06T00:11:36;2.25;;;2.00;;
84264;SDS011;74412;45.626;5.108;2024-01-06T00:14:02;1.25;;;1.25;;
84264;SDS011;74412;45.626;5.108;2024-01-06T00:16:29;1.25;;;1.25;;
84264;SDS011;74412;45.626;5.108;2024-01-06T00:18:56;4.00;;;2.00;;
84264;SDS011;74412;45.626;5.108;2024-01-06T00:21:24;3.50;;;3.00;;
84264;SDS011;74412;45.626;5.108;2024-01-06T00:23:51;2.50;;;1.00;;
84264;SDS011;74412;45.626;5.108;2024-01-06T00:26:19;2.50;;;2.50;;
84264;SDS011;74412;45.626;5.108;2024-01-06T00:28:46;2.75;;;2.75;;
84264;SDS011;74412;45.626;5.108;2024-01-06T00:31:14;2.25;;;2.25;;
84264;SDS011;74412;45.626;5.108;2024-01-06T00:33:41;2.25;;;2.00;;
84264;SDS011;74412;45.626;5.108;2024-01-06T00:36:07;1.00;;;1.00;;
84264;SDS011;74412;45.626;5.108;2024-01-06T00:38:35;3.00;;;2.00;;
84264;SDS011;74412;45.626;5.108;2024-01-06T00:41:02;3.00;;;3.00;;
84264;SDS011;74412;45.626;5.108;2024-01-06T00:43:30;4.25;;;3.00;;
84264;SDS011;74412;45.626;5.108;2024-01-06T00:45:58;2.00;;;2.00;;
84264;SDS011;74412;45.626;5.108;2024-01-06T00:48:25;3.75;;;2.00;;
84264;SDS011;74412;45.626;5.108;2024-01-06T00:50:51;4.00;;;2.00;;
84264;SDS011;74412;45.626;5.108;2024-01-06T00:53:18;3.00;;;3.00;;
84264;SDS011;74412;45.626;5.108;2024-01-06T00:55:44;2.00;;;1.50;;
84264;SDS011;74412;45.626;5.108;2024-01-06T00:58:11;1.00;;;1.00;;
84264;SDS011;74412;45.626;5.108;2024-01-06T01:00:39;2.25;;;2.00;;
84264;SDS011;74412;45.626;5.108;2024-01-06T01:03:06;3.00;;;1.75;;
84264;SDS011;74412;45.626;5.108;2024-01-06T01:05:32;1.75;;;1.75;;
84264;SDS011;74412;45.626;5.108;2024-01-06T01:07:59;1.25;;;1.00;;
84264;SDS011;74412;45.626;5.108;2024-01-06T01:10:26;0.00;;;0.00;;
84264;SDS011;74412;45.626;5.108;2024-01-06T01:12:52;1.00;;;1.00;;
84264;SDS011;74412;45.626;5.108;2024-01-06T01:15:21;2.00;;;1.00;;
84264;SDS011;74412;45.626;5.108;2024-01-06T01:17:49;3.00;;;1.25;;
84264;SDS011;74412;45.626;5.108;2024-01-06T01:20:16;1.00;;;1.00;;
84264;SDS011;74412;45.626;5.108;2024-01-06T01:22:42;2.00;;;1.00;;
84264;SDS011;74412;45.626;5.108;2024-01-06T01:25:09;1.50;;;1.00;;
84264;SDS011;74412;45.626;5.108;2024-01-06T01:27:37;2.00;;;1.00;;
84264;SDS011;74412;45.626;5.108;2024-01-06T01:30:04;1.75;;;1.00;;
84264;SDS011;74412;45.626;5.108;2024-01-06T01:32:32;1.50;;;1.00;;
84264;SDS011;74412;45.626;5.108;2024-01-06T01:35:00;3.00;;;1.00;;
84264;SDS011;74412;45.626;5.108;2024-01-06T01:37:27;1.50;;;1.50;;
84264;SDS011;74412;45.626;5.108;2024-01-06T01:39:53;1.00;;;0.25;;
84264;SDS011;74412;45.626;5.108;2024-01-06T01:42:20;0.25;;;0.00;;
84264;SDS011;74412;45.626;5.108;2024-01-06T01:44:46;0.50;;;0.50;;
84264;SDS011;74412;45.626;5.108;2024-01-06T01:47:13;1.00;;;1.00;;
84264;SDS011;74412;45.626;5.108;2024-01-06T01:49:43;1.00;;;1.00;;
84264;SDS011;74412;45.626;5.108;2024-01-06T01:52:11;1.00;;;1.00;;
84264;SDS011;74412;45.626;5.108;2024-01-06T01:54:38;2.75;;;2.00;;
84264;SDS011;74412;45.626;5.108;2024-01-06T01:57:06;1.00;;;1.00;;
84264;SDS011;74412;45.626;5.108;2024-01-06T01:59:33;1.75;;;0.75;;
84264;SDS011;74412;45.626;5.108;2024-01-06T02:02:00;3.50;;;1.00;;
84264;SDS011;74412;45.626;5.108;2024-01-06T02:04:28;1.00;;;1.00;;
84264;SDS011;74412;45.626;5.108;2024-01-06T02:06:55;1.00;;;1.00;;
84264;SDS011;74412;45.626;5.108;2024-01-06T02:09:23;1.00;;;1.00;;
84264;SDS011;74412;45.626;5.108;2024-01-06T02:11:52;2.00;;;2.00;;
84264;SDS011;74412;45.626;5.108;2024-01-06T02:14:18;1.00;;;1.00;;
84264;SDS011;74412;45.626;5.108;2024-01-06T02:16:45;1.50;;;1.50;;
84264;SDS011;74412;45.626;5.108;2024-01-06T02:19:12;3.00;;;1.00;;
84264;SDS011;74412;45.626;5.108;2024-01-06T02:21:40;2.00;;;1.00;;
84264;SDS011;74412;45.626;5.108;2024-01-06T02:24:10;2.25;;;1.00;;
84264;SDS011;74412;45.626;5.108;2024-01-06T02:26:36;0.25;;;0.25;;
84264;SDS011;74412;45.626;5.108;2024-01-06T02:29:03;1.00;;;1.00;;
84264;SDS011;74412;45.626;5.108;2024-01-06T02:31:30;2.25;;;1.00;;
84264;SDS011;74412;45.626;5.108;2024-01-06T02:33:56;3.00;;;1.00;;
84264;SDS011;74412;45.626;5.108;2024-01-06T02:36:23;1.00;;;1.00;;
84264;SDS011;74412;45.626;5.108;2024-01-06T02:38:49;1.00;;;1.00;;
84264;SDS011;74412;45.626;5.108;2024-01-06T02:41:17;1.00;;;1.00;;
84264;SDS011;74412;45.626;5.108;2024-01-06T02:43:44;2.00;;;1.75;;
84264;SDS011;74412;45.626;5.108;2024-01-06T02:46:10;2.00;;;0.75;;
84264;SDS011;74412;45.626;5.108;2024-01-06T02:48:37;0.00;;;0.00;;
84264;SDS011;74412;45.626;5.108;2024-01-06T02:51:06;2.50;;;1.00;;
84264;SDS011;74412;45.626;5.108;2024-01-06T02:53:33;1.00;;;1.00;;
84264;SDS011;74412;45.626;5.108;2024-01-06T02:56:00;1.25;;;1.00;;
84264;SDS011;74412;45.626;5.108;2024-01-06T02:58:27;3.00;;;2.00;;
84264;SDS011;74412;45.626;5.108;2024-01-06T03:00:54;1.00;;;1.00;;
84264;SDS011;74412;45.626;5.108;2024-01-06T03:03:21;1.00;;;1.00;;
84264;SDS011;74412;45.626;5.108;2024-01-06T03:05:47;1.75;;;1.75;;
84264;SDS011;74412;45.626;5.108;2024-01-06T03:08:14;0.00;;;0.00;;
84264;SDS011;74412;45.626;5.108;2024-01-06T03:10:41;1.00;;;1.00;;
84264;SDS011;74412;45.626;5.108;2024-01-06T03:13:08;0.75;;;0.75;;
84264;SDS011;74412;45.626;5.108;2024-01-06T03:15:36;2.00;;;1.00;;
84264;SDS011;74412;45.626;5.108;2024-01-06T03:18:03;1.75;;;1.50;;
84264;SDS011;74412;45.626;5.108;2024-01-06T03:20:30;3.50;;;1.25;;
84264;SDS011;74412;45.626;5.108;2024-01-06T03:22:56;1.00;;;1.00;;
84264;SDS011;74412;45.626;5.108;2024-01-06T03:25:23;0.75;;;0.75;;
84264;SDS011;74412;45.626;5.108;2024-01-06T03:27:49;1.00;;;1.00;;
84264;SDS011;74412;45.626;5.108;2024-01-06T03:30:16;2.00;;;0.00;;
84264;SDS011;74412;45.626;5.108;2024-01-06T03:32:44;1.00;;;1.00;;
84264;SDS011;74412;45.626;5.108;2024-01-06T03:35:11;1.50;;;1.50;;
84264;SDS011;74412;45.626;5.108;2024-01-06T03:37:37;3.25;;;2.00;;
84264;SDS011;74412;45.626;5.108;2024-01-06T03:40:04;0.75;;;0.75;;
84264;SDS011;74412;45.626;5.108;2024-01-06T03:42:31;1.75;;;1.00;;
84264;SDS011;74412;45.626;5.108;2024-01-06T03:44:58;1.50;;;1.50;;
84264;SDS011;74412;45.626;5.108;2024-01-06T03:47:25;2.00;;;2.00;;
84264;SDS011;74412;45.626;5.108;2024-01-06T03:49:53;1.00;;;1.00;;
84264;SDS011;74412;45.626;5.108;2024-01-06T03:52:19;1.00;;;0.25;;
84264;SDS011;74412;45.626;5.108;2024-01-06T03:54:46;2.25;;;2.00;;
84264;SDS011;74412;45.626;5.108;2024-01-06T03:57:12;1.00;;;1.00;;
84264;SDS011;74412;45.626;5.108;2024-01-06T03:59:39;2.00;;;1.00;;
84264;SDS011;74412;45.626;5.108;2024-01-06T04:02:06;2.00;;;2.00;;
84264;SDS011;74412;45.626;5.108;2024-01-06T04:04:32;2.25;;;2.25;;
84264;SDS011;74412;45.626;5.108;2024-01-06T04:07:00;2.75;;;1.50;;
84264;SDS011;74412;45.626;5.108;2024-01-06T04:09:27;1.00;;;1.00;;
84264;SDS011;74412;45.626;5.108;2024-01-06T04:11:54;2.00;;;2.00;;
84264;SDS011;74412;45.626;5.108;2024-01-06T04:14:20;3.50;;;2.00;;
84264;SDS011;74412;45.626;5.108;2024-01-06T04:16:47;3.50;;;2.25;;
84264;SDS011;74412;45.626;5.108;2024-01-06T04:19:13;1.25;;;1.25;;
84264;SDS011;74412;45.626;5.108;2024-01-06T04:21:40;3.50;;;1.75;;
84264;SDS011;74412;45.626;5.108;2024-01-06T04:24:07;2.00;;;2.00;;
84264;SDS011;74412;45.626;5.108;2024-01-06T04:26:34;1.25;;;1.25;;
84264;SDS011;74412;45.626;5.108;2024-01-06T04:29:01;1.25;;;1.00;;
84264;SDS011;74412;45.626;5.108;2024-01-06T04:31:27;1.00;;;1.00;;
84264;SDS011;74412;45.626;5.108;2024-01-06T04:33:54;2.00;;;1.75;;
84264;SDS011;74412;45.626;5.108;2024-01-06T04:36:20;1.00;;;1.00;;
84264;SDS011;74412;45.626;5.108;2024-01-06T04:38:47;2.00;;;2.00;;
84264;SDS011;74412;45.626;5.108;2024-01-06T04:41:15;3.00;;;2.00;;
84264;SDS011;74412;45.626;5.108;2024-01-06T04:43:42;2.00;;;2.00;;
84264;SDS011;74412;45.626;5.108;2024-01-06T04:46:08;2.00;;;2.00;;
84264;SDS011;74412;45.626;5.108;2024-01-06T04:48:35;1.00;;;1.00;;
84264;SDS011;74412;45.626;5.108;2024-01-06T04:51:02;3.00;;;1.75;;
84264;SDS011;74412;45.626;5.108;2024-01-06T04:53:29;2.50;;;2.50;;
84264;SDS011;74412;45.626;5.108;2024-01-06T04:55:55;1.50;;;1.50;;
84264;SDS011;74412;45.626;5.108;2024-01-06T04:58:23;1.00;;;1.00;;
84264;SDS011;74412;45.626;5.108;2024-01-06T05:00:50;2.25;;;1.75;;
84264;SDS011;74412;45.626;5.108;2024-01-06T05:03:17;2.00;;;2.00;;
84264;SDS011;74412;45.626;5.108;2024-01-06T05:05:44;3.75;;;1.00;;
84264;SDS011;74412;45.626;5.108;2024-01-06T05:08:10;1.25;;;1.00;;
84264;SDS011;74412;45.626;5.108;2024-01-06T05:10:37;1.50;;;0.75;;
84264;SDS011;74412;45.626;5.108;2024-01-06T05:13:03;2.00;;;1.00;;
84264;SDS011;74412;45.626;5.108;2024-01-06T05:15:32;1.75;;;1.75;;
84264;SDS011;74412;45.626;5.108;2024-01-06T05:17:58;1.75;;;1.75;;
84264;SDS011;74412;45.626;5.108;2024-01-06T05:20:25;1.75;;;1.25;;
84264;SDS011;74412;45.626;5.108;2024-01-06T05:22:52;1.25;;;1.25;;
84264;SDS011;74412;45.626;5.108;2024-01-06T05:25:18;2.00;;;1.25;;
84264;SDS011;74412;45.626;5.108;2024-01-06T05:27:45;3.50;;;3.00;;
84264;SDS011;74412;45.626;5.108;2024-01-06T05:30:12;2.25;;;1.75;;
84264;SDS011;74412;45.626;5.108;2024-01-06T05:32:40;1.00;;;1.00;;
84264;SDS011;74412;45.626;5.108;2024-01-06T05:35:07;1.00;;;1.00;;
84264;SDS011;74412;45.626;5.108;2024-01-06T05:37:33;1.25;;;1.25;;
84264;SDS011;74412;45.626;5.108;2024-01-06T05:40:00;1.00;;;1.00;;
84264;SDS011;74412;45.626;5.108;2024-01-06T05:42:29;2.00;;;2.00;;
84264;SDS011;74412;45.626;5.108;2024-01-06T05:44:55;1.00;;;1.00;;
84264;SDS011;74412;45.626;5.108;2024-01-06T05:47:22;2.25;;;1.00;;
84264;SDS011;74412;45.626;5.108;2024-01-06T05:49:50;1.50;;;1.50;;
84264;SDS011;74412;45.626;5.108;2024-01-06T05:52:16;1.00;;;1.00;;
84264;SDS011;74412;45.626;5.108;2024-01-06T05:54:43;2.75;;;1.00;;
84264;SDS011;74412;45.626;5.108;2024-01-06T05:57:10;1.75;;;1.50;;
84264;SDS011;74412;45.626;5.108;2024-01-06T05:59:36;0.25;;;0.25;;
84264;SDS011;74412;45.626;5.108;2024-01-06T06:02:03;1.25;;;1.00;;
84264;SDS011;74412;45.626;5.108;2024-01-06T06:04:30;2.75;;;2.00;;
84264;SDS011;74412;45.626;5.108;2024-01-06T06:06:58;2.50;;;2.00;;
84264;SDS011;74412;45.626;5.108;2024-01-06T06:09:24;2.00;;;2.00;;
84264;SDS011;74412;45.626;5.108;2024-01-06T06:11:53;1.75;;;1.75;;
84264;SDS011;74412;45.626;5.108;2024-01-06T06:14:20;1.25;;;1.25;;
84264;SDS011;74412;45.626;5.108;2024-01-06T06:16:46;2.00;;;2.00;;
84264;SDS011;74412;45.626;5.108;2024-01-06T06:19:13;3.00;;;2.00;;
84264;SDS011;74412;45.626;5.108;2024-01-06T06:21:40;2.00;;;1.75;;
84264;SDS011;74412;45.626;5.108;2024-01-06T06:24:08;0.00;;;0.00;;
84264;SDS011;74412;45.626;5.108;2024-01-06T06:26:34;1.00;;;1.00;;
84264;SDS011;74412;45.626;5.108;2024-01-06T06:29:01;2.75;;;2.75;;
84264;SDS011;74412;45.626;5.108;2024-01-06T06:31:28;3.00;;;2.00;;
84264;SDS011;74412;45.626;5.108;2024-01-06T06:33:55;2.00;;;2.00;;
84264;SDS011;74412;45.626;5.108;2024-01-06T06:36:21;0.00;;;0.00;;
84264;SDS011;74412;45.626;5.108;2024-01-06T06:38:48;2.75;;;2.00;;
84264;SDS011;74412;45.626;5.108;2024-01-06T06:41:16;1.50;;;1.50;;
84264;SDS011;74412;45.626;5.108;2024-01-06T06:43:43;2.50;;;1.50;;
84264;SDS011;74412;45.626;5.108;2024-01-06T06:46:09;2.50;;;2.00;;
84264;SDS011;74412;45.626;5.108;2024-01-06T06:48:36;3.00;;;2.00;;
84264;SDS011;74412;45.626;5.108;2024-01-06T06:51:03;1.75;;;1.75;;
84264;SDS011;74412;45.626;5.108;2024-01-06T06:53:30;1.00;;;1.00;;
84264;SDS011;74412;45.626;5.108;2024-01-06T06:55:56;2.00;;;2.00;;
84264;SDS011;74412;45.626;5.108;2024-01-06T06:58:24;1.00;;;1.00;;
84264;SDS011;74412;45.626;5.108;2024-01-06T07:00:51;3.00;;;3.00;;
84264;SDS011;74412;45.626;5.108;2024-01-06T07:03:19;4.00;;;2.00;;
84264;SDS011;74412;45.626;5.108;2024-01-06T07:05:46;3.00;;;3.00;;
84264;SDS011;74412;45.626;5.108;2024-01-06T07:08:13;3.00;;;2.50;;
84264;SDS011;74412;45.626;5.108;2024-01-06T07:10:40;5.50;;;3.00;;
84264;SDS011;74412;45.626;5.108;2024-01-06T07:13:07;0.00;;;0.00;;
84264;SDS011;74412;45.626;5.108;2024-01-06T07:15:35;2.50;;;2.50;;
84264;SDS011;74412;45.626;5.108;2024-01-06T07:18:01;2.25;;;2.25;;
84264;SDS011;74412;45.626;5.108;2024-01-06T07:20:28;2.00;;;2.00;;
84264;SDS011;74412;45.626;5.108;2024-01-06T07:22:55;3.25;;;3.00;;
84264;SDS011;74412;45.626;5.108;2024-01-06T07:25:21;2.50;;;2.25;;
84264;SDS011;74412;45.626;5.108;2024-01-06T07:27:48;2.00;;;2.00;;
84264;SDS011;74412;45.626;5.108;2024-01-06T07:30:15;1.75;;;1.75;;
84264;SDS011;74412;45.626;5.108;2024-01-06T07:32:43;4.00;;;3.00;;
84264;SDS011;74412;45.626;5.108;2024-01-06T07:35:09;4.25;;;3.75;;
84264;SDS011;74412;45.626;5.108;2024-01-06T07:37:36;1.25;;;1.25;;
84264;SDS011;74412;45.626;5.108;2024-01-06T07:40:03;3.00;;;3.00;;
84264;SDS011;74412;45.626;5.108;2024-01-06T07:42:30;3.00;;;2.75;;
84264;SDS011;74412;45.626;5.108;2024-01-06T07:44:56;3.00;;;2.75;;
84264;SDS011;74412;45.626;5.108;2024-01-06T07:47:23;3.00;;;3.00;;
84264;SDS011;74412;45.626;5.108;2024-01-06T07:49:51;3.00;;;3.00;;
84264;SDS011;74412;45.626;5.108;2024-01-06T07:52:19;2.50;;;2.50;;
84264;SDS011;74412;45.626;5.108;2024-01-06T07:54:46;1.25;;;1.25;;
84264;SDS011;74412;45.626;5.108;2024-01-06T07:57:13;2.00;;;2.00;;
84264;SDS011;74412;45.626;5.108;2024-01-06T07:59:40;2.00;;;2.00;;
84264;SDS011;74412;45.626;5.108;2024-01-06T08:02:07;2.00;;;2.00;;
84264;SDS011;74412;45.626;5.108;2024-01-06T08:04:34;2.00;;;2.00;;
84264;SDS011;74412;45.626;5.108;2024-01-06T08:07:02;2.50;;;2.00;;
84264;SDS011;74412;45.626;5.108;2024-01-06T08:09:29;3.00;;;2.00;;
84264;SDS011;74412;45.626;5.108;2024-01-06T08:11:56;4.75;;;3.25;;
84264;SDS011;74412;45.626;5.108;2024-01-06T08:14:22;3.50;;;3.50;;
84264;SDS011;74412;45.626;5.108;2024-01-06T08:16:49;4.00;;;4.00;;
84264;SDS011;74412;45.626;5.108;2024-01-06T08:19:16;2.75;;;2.25;;
84264;SDS011;74412;45.626;5.108;2024-01-06T08:21:42;3.00;;;3.00;;
84264;SDS011;74412;45.626;5.108;2024-01-06T08:24:11;3.00;;;3.00;;
84264;SDS011;74412;45.626;5.108;2024-01-06T08:26:38;4.75;;;3.25;;
84264;SDS011;74412;45.626;5.108;2024-01-06T08:29:04;3.25;;;3.00;;
84264;SDS011;74412;45.626;5.108;2024-01-06T08:31:31;3.25;;;3.25;;
84264;SDS011;74412;45.626;5.108;2024-01-06T08:33:58;2.00;;;2.00;;
84264;SDS011;74412;45.626;5.108;2024-01-06T08:36:24;2.00;;;2.00;;
84264;SDS011;74412;45.626;5.108;2024-01-06T08:38:51;4.75;;;3.00;;
84264;SDS011;74412;45.626;5.108;2024-01-06T08:41:19;4.75;;;2.75;;
84264;SDS011;74412;45.626;5.108;2024-01-06T08:43:46;5.00;;;4.50;;
84264;SDS011;74412;45.626;5.108;2024-01-06T08:46:12;5.00;;;3.75;;
84264;SDS011;74412;45.626;5.108;2024-01-06T08:48:39;3.00;;;3.00;;
84264;SDS011;74412;45.626;5.108;2024-01-06T08:51:06;3.75;;;3.25;;
84264;SDS011;74412;45.626;5.108;2024-01-06T08:53:35;3.00;;;2.75;;
84264;SDS011;74412;45.626;5.108;2024-01-06T08:56:02;3.00;;;3.00;;
84264;SDS011;74412;45.626;5.108;2024-01-06T08:58:31;3.75;;;3.75;;
84264;SDS011;74412;45.626;5.108;2024-01-06T09:00:58;3.00;;;3.00;;
84264;SDS011;74412;45.626;5.108;2024-01-06T09:03:25;4.25;;;4.25;;
84264;SDS011;74412;45.626;5.108;2024-01-06T09:05:52;5.25;;;3.75;;
84264;SDS011;74412;45.626;5.108;2024-01-06T09:08:19;4.25;;;4.25;;
84264;SDS011;74412;45.626;5.108;2024-01-06T09:10:46;4.75;;;3.50;;
84264;SDS011;74412;45.626;5.108;2024-01-06T09:13:16;6.00;;;5.00;;
84264;SDS011;74412;45.626;5.108;2024-01-06T09:15:44;10.75;;;9.25;;
84264;SDS011;74412;45.626;5.108;2024-01-06T09:18:11;6.00;;;4.00;;
84264;SDS011;74412;45.626;5.108;2024-01-06T09:20:37;3.75;;;3.00;;
84264;SDS011;74412;45.626;5.108;2024-01-06T09:23:04;5.00;;;4.00;;
84264;SDS011;74412;45.626;5.108;2024-01-06T09:25:31;4.50;;;3.00;;
84264;SDS011;74412;45.626;5.108;2024-01-06T09:27:57;3.00;;;3.00;;
84264;SDS011;74412;45.626;5.108;2024-01-06T09:30:24;3.25;;;3.00;;
84264;SDS011;74412;45.626;5.108;2024-01-06T09:32:52;5.75;;;5.00;;
84264;SDS011;74412;45.626;5.108;2024-01-06T09:35:19;3.75;;;3.00;;
84264;SDS011;74412;45.626;5.108;2024-01-06T09:37:46;4.00;;;3.25;;
84264;SDS011;74412;45.626;5.108;2024-01-06T09:40:14;4.75;;;4.75;;
84264;SDS011;74412;45.626;5.108;2024-01-06T09:42:47;3.75;;;2.75;;
84264;SDS011;74412;45.626;5.108;2024-01-06T09:45:13;2.00;;;2.00;;
84264;SDS011;74412;45.626;5.108;2024-01-06T09:47:40;4.75;;;4.00;;
84264;SDS011;74412;45.626;5.108;2024-01-06T09:50:09;6.00;;;4.00;;
84264;SDS011;74412;45.626;5.108;2024-01-06T09:52:37;4.00;;;4.00;;
84264;SDS011;74412;45.626;5.108;2024-01-06T09:55:07;7.50;;;6.00;;
84264;SDS011;74412;45.626;5.108;2024-01-06T09:57:37;5.25;;;4.00;;
84264;SDS011;74412;45.626;5.108;2024-01-06T10:00:04;3.75;;;3.75;;
84264;SDS011;74412;45.626;5.108;2024-01-06T10:02:33;5.00;;;4.00;;
84264;SDS011;74412;45.626;5.108;2024-01-06T10:05:00;4.00;;;3.50;;
84264;SDS011;74412;45.626;5.108;2024-01-06T10:07:28;5.00;;;5.00;;
84264;SDS011;74412;45.626;5.108;2024-01-06T10:09:55;2.75;;;2.75;;
84264;SDS011;74412;45.626;5.108;2024-01-06T10:12:22;6.00;;;3.00;;
84264;SDS011;74412;45.626;5.108;2024-01-06T10:14:49;4.00;;;3.00;;
84264;SDS011;74412;45.626;5.108;2024-01-06T10:17:16;4.50;;;4.00;;
84264;SDS011;74412;45.626;5.108;2024-01-06T10:19:44;6.00;;;4.00;;
84264;SDS011;74412;45.626;5.108;2024-01-06T10:22:11;2.25;;;2.25;;
84264;SDS011;74412;45.626;5.108;2024-01-06T10:24:39;4.75;;;3.50;;
84264;SDS011;74412;45.626;5.108;2024-01-06T10:27:06;4.25;;;3.50;;
84264;SDS011;74412;45.626;5.108;2024-01-06T10:29:34;4.00;;;3.00;;
84264;SDS011;74412;45.626;5.108;2024-01-06T10:32:01;3.25;;;3.25;;
84264;SDS011;74412;45.626;5.108;2024-01-06T10:34:28;5.00;;;5.00;;
84264;SDS011;74412;45.626;5.108;2024-01-06T10:36:57;4.00;;;4.00;;
84264;SDS011;74412;45.626;5.108;2024-01-06T10:39:24;4.25;;;3.00;;
84264;SDS011;74412;45.626;5.108;2024-01-06T10:41:54;3.00;;;2.00;;
84264;SDS011;74412;45.626;5.108;2024-01-06T10:44:22;3.00;;;3.00;;
84264;SDS011;74412;45.626;5.108;2024-01-06T10:46:50;3.75;;;3.50;;
84264;SDS011;74412;45.626;5.108;2024-01-06T10:49:19;5.50;;;4.00;;
84264;SDS011;74412;45.626;5.108;2024-01-06T10:51:47;4.50;;;4.00;;
84264;SDS011;74412;45.626;5.108;2024-01-06T10:54:15;5.00;;;2.75;;
84264;SDS011;74412;45.626;5.108;2024-01-06T10:56:45;4.00;;;4.00;;
84264;SDS011;74412;45.626;5.108;2024-01-06T10:59:14;4.25;;;4.25;;
84264;SDS011;74412;45.626;5.108;2024-01-06T11:01:41;3.50;;;3.00;;
84264;SDS011;74412;45.626;5.108;2024-01-06T11:04:08;3.50;;;3.00;;
84264;SDS011;74412;45.626;5.108;2024-01-06T11:06:35;3.25;;;3.25;;
84264;SDS011;74412;45.626;5.108;2024-01-06T11:09:04;4.50;;;4.00;;
84264;SDS011;74412;45.626;5.108;2024-01-06T11:11:36;1.25;;;0.75;;
84264;SDS011;74412;45.626;5.108;2024-01-06T11:14:18;4.00;;;4.00;;
84264;SDS011;74412;45.626;5.108;2024-01-06T11:16:45;3.00;;;3.00;;
84264;SDS011;74412;45.626;5.108;2024-01-06T11:22:18;3.75;;;3.75;;
84264;SDS011;74412;45.626;5.108;2024-01-06T11:24:49;2.00;;;1.00;;
84264;SDS011;74412;45.626;5.108;2024-01-06T11:27:18;2.00;;;2.00;;
84264;SDS011;74412;45.626;5.108;2024-01-06T11:29:47;2.00;;;2.00;;
84264;SDS011;74412;45.626;5.108;2024-01-06T11:32:17;3.00;;;3.00;;
84264;SDS011;74412;45.626;5.108;2024-01-06T11:34:50;2.25;;;2.25;;
84264;SDS011;74412;45.626;5.108;2024-01-06T11:37:23;2.00;;;2.00;;
84264;SDS011;74412;45.626;5.108;2024-01-06T11:39:51;4.75;;;3.00;;
84264;SDS011;74412;45.626;5.108;2024-01-06T11:42:19;4.00;;;4.00;;
84264;SDS011;74412;45.626;5.108;2024-01-06T11:44:49;3.00;;;3.00;;
84264;SDS011;74412;45.626;5.108;2024-01-06T11:47:17;3.50;;;3.50;;
84264;SDS011;74412;45.626;5.108;2024-01-06T11:49:48;2.00;;;2.00;;
84264;SDS011;74412;45.626;5.108;2024-01-06T11:52:22;9.25;;;5.00;;
84264;SDS011;74412;45.626;5.108;2024-01-06T11:54:50;5.50;;;5.00;;
84264;SDS011;74412;45.626;5.108;2024-01-06T11:57:18;5.00;;;4.25;;
84264;SDS011;74412;45.626;5.108;2024-01-06T11:59:44;4.50;;;4.50;;
84264;SDS011;74412;45.626;5.108;2024-01-06T12:02:17;3.75;;;3.75;;
84264;SDS011;74412;45.626;5.108;2024-01-06T12:04:47;4.00;;;4.00;;
84264;SDS011;74412;45.626;5.108;2024-01-06T12:07:15;5.00;;;4.50;;
84264;SDS011;74412;45.626;5.108;2024-01-06T12:09:42;3.00;;;3.00;;
84264;SDS011;74412;45.626;5.108;2024-01-06T12:12:08;4.25;;;4.25;;
84264;SDS011;74412;45.626;5.108;2024-01-06T12:14:36;5.00;;;4.00;;
84264;SDS011;74412;45.626;5.108;2024-01-06T12:17:04;3.00;;;3.00;;
84264;SDS011;74412;45.626;5.108;2024-01-06T12:19:31;5.75;;;5.00;;
84264;SDS011;74412;45.626;5.108;2024-01-06T12:21:59;4.00;;;4.00;;
84264;SDS011;74412;45.626;5.108;2024-01-06T12:24:26;4.50;;;4.50;;
84264;SDS011;74412;45.626;5.108;2024-01-06T12:26:55;5.50;;;5.50;;
84264;SDS011;74412;45.626;5.108;2024-01-06T12:29:22;4.50;;;4.25;;
84264;SDS011;74412;45.626;5.108;2024-01-06T12:31:49;3.75;;;3.75;;
84264;SDS011;74412;45.626;5.108;2024-01-06T12:34:19;3.00;;;3.00;;
84264;SDS011;74412;45.626;5.108;2024-01-06T12:36:46;6.25;;;4.25;;
84264;SDS011;74412;45.626;5.108;2024-01-06T12:39:14;3.00;;;2.75;;
84264;SDS011;74412;45.626;5.108;2024-01-06T12:41:41;3.25;;;3.25;;
84264;SDS011;74412;45.626;5.108;2024-01-06T12:44:08;3.00;;;3.00;;
84264;SDS011;74412;45.626;5.108;2024-01-06T12:46:35;3.75;;;3.75;;
84264;SDS011;74412;45.626;5.108;2024-01-06T12:49:02;3.50;;;3.00;;
84264;SDS011;74412;45.626;5.108;2024-01-06T12:51:30;2.25;;;2.25;;
84264;SDS011;74412;45.626;5.108;2024-01-06T12:53:57;2.75;;;2.75;;
84264;SDS011;74412;45.626;5.108;2024-01-06T12:56:23;4.50;;;3.00;;
84264;SDS011;74412;45.626;5.108;2024-01-06T12:58:50;4.25;;;4.25;;
84264;SDS011;74412;45.626;5.108;2024-01-06T13:01:17;3.00;;;3.00;;
84264;SDS011;74412;45.626;5.108;2024-01-06T13:03:44;5.00;;;3.50;;
84264;SDS011;74412;45.626;5.108;2024-01-06T13:06:10;3.50;;;3.50;;
84264;SDS011;74412;45.626;5.108;2024-01-06T13:08:39;3.00;;;3.00;;
84264;SDS011;74412;45.626;5.108;2024-01-06T13:11:08;4.00;;;4.00;;
84264;SDS011;74412;45.626;5.108;2024-01-06T13:13:35;3.00;;;2.00;;
84264;SDS011;74412;45.626;5.108;2024-01-06T13:16:02;5.00;;;3.75;;
84264;SDS011;74412;45.626;5.108;2024-01-06T13:18:30;4.00;;;4.00;;
84264;SDS011;74412;45.626;5.108;2024-01-06T13:20:57;3.50;;;3.50;;
84264;SDS011;74412;45.626;5.108;2024-01-06T13:23:23;4.00;;;4.00;;
84264;SDS011;74412;45.626;5.108;2024-01-06T13:25:51;4.00;;;4.00;;
84264;SDS011;74412;45.626;5.108;2024-01-06T13:28:19;4.00;;;4.00;;
84264;SDS011;74412;45.626;5.108;2024-01-06T13:30:45;4.00;;;4.00;;
84264;SDS011;74412;45.626;5.108;2024-01-06T13:33:12;2.00;;;2.00;;
84264;SDS011;74412;45.626;5.108;2024-01-06T13:35:38;9.00;;;5.75;;
84264;SDS011;74412;45.626;5.108;2024-01-06T13:38:05;3.50;;;3.25;;
84264;SDS011;74412;45.626;5.108;2024-01-06T13:40:34;7.00;;;6.00;;
84264;SDS011;74412;45.626;5.108;2024-01-06T13:43:02;4.00;;;4.00;;
84264;SDS011;74412;45.626;5.108;2024-01-06T13:45:30;6.75;;;4.00;;
84264;SDS011;74412;45.626;5.108;2024-01-06T13:47:57;4.25;;;4.25;;
84264;SDS011;74412;45.626;5.108;2024-01-06T13:50:23;9.25;;;9.25;;
84264;SDS011;74412;45.626;5.108;2024-01-06T13:52:50;5.25;;;5.25;;
84264;SDS011;74412;45.626;5.108;2024-01-06T13:55:17;6.00;;;6.00;;
84264;SDS011;74412;45.626;5.108;2024-01-06T13:57:43;7.00;;;5.50;;
84264;SDS011;74412;45.626;5.108;2024-01-06T14:00:12;8.00;;;5.00;;
84264;SDS011;74412;45.626;5.108;2024-01-06T14:02:43;4.50;;;4.50;;
84264;SDS011;74412;45.626;5.108;2024-01-06T14:05:10;11.00;;;8.00;;
84264;SDS011;74412;45.626;5.108;2024-01-06T14:07:37;6.00;;;6.00;;
84264;SDS011;74412;45.626;5.108;2024-01-06T14:10:05;8.50;;;7.00;;
84264;SDS011;74412;45.626;5.108;2024-01-06T14:12:33;9.75;;;8.00;;
84264;SDS011;74412;45.626;5.108;2024-01-06T14:14:59;7.25;;;6.75;;
84264;SDS011;74412;45.626;5.108;2024-01-06T14:17:27;6.50;;;6.00;;
84264;SDS011;74412;45.626;5.108;2024-01-06T14:19:54;3.75;;;3.75;;
84264;SDS011;74412;45.626;5.108;2024-01-06T14:22:21;3.00;;;2.00;;
84264;SDS011;74412;45.626;5.108;2024-01-06T14:24:48;8.25;;;7.50;;
84264;SDS011;74412;45.626;5.108;2024-01-06T14:27:14;8.00;;;7.00;;
84264;SDS011;74412;45.626;5.108;2024-01-06T14:29:41;6.50;;;6.50;;
84264;SDS011;74412;45.626;5.108;2024-01-06T14:32:08;7.00;;;7.00;;
84264;SDS011;74412;45.626;5.108;2024-01-06T14:34:37;9.50;;;7.75;;
84264;SDS011;74412;45.626;5.108;2024-01-06T14:37:04;3.50;;;3.50;;
84264;SDS011;74412;45.626;5.108;2024-01-06T14:39:33;7.50;;;7.00;;
84264;SDS011;74412;45.626;5.108;2024-01-06T14:42:01;8.50;;;5.50;;
84264;SDS011;74412;45.626;5.108;2024-01-06T14:44:28;6.00;;;6.00;;
84264;SDS011;74412;45.626;5.108;2024-01-06T14:46:55;5.25;;;5.25;;
84264;SDS011;74412;45.626;5.108;2024-01-06T14:49:21;9.00;;;7.75;;
84264;SDS011;74412;45.626;5.108;2024-01-06T14:51:50;6.00;;;6.00;;